Time;durP1;ratioP1;P1;durP2;ratioP2;P2;SDS_P1;SDS_P2;PMS_P1;PMS_P2;Temp;Humidity;BMP_temperature;BMP_pressure;BME280_temperature;BME280_humidity;BME280_pressure;Samples;Min_cycle;Max_cycle;Signal;HPM_P1;HPM_P2
2022/12/18 00:01:05;;;;;;;33.05;12.63;;;;;;;-5.85;58.61;98166.75;5018373;27;20622;-71
2022/12/18 00:03:35;;;;;;;34.90;12.32;;;;;;;-5.90;59.16;98165.50;5012065;27;20737;-71
2022/12/18 00:06:01;;;;;;;25.38;11.05;;;;;;;-6.03;59.09;98165.66;5006551;28;20682;-71
2022/12/18 00:08:26;;;;;;;32.25;12.38;;;;;;;-5.95;58.87;98165.03;5006550;27;20240;-71
2022/12/18 00:10:51;;;;;;;25.27;10.45;;;;;;;-5.96;58.98;98160.91;4996427;27;20162;-71
2022/12/18 00:13:17;;;;;;;30.08;11.10;;;;;;;-6.05;58.75;98157.34;4974348;27;20603;-71
2022/12/18 00:15:42;;;;;;;26.60;11.00;;;;;;;-5.90;59.02;98158.69;4990483;27;20241;-71
2022/12/18 00:18:08;;;;;;;28.35;12.50;;;;;;;-5.84;58.32;98167.59;5012705;27;20209;-71
2022/12/18 00:20:38;;;;;;;29.73;10.98;;;;;;;-5.74;58.29;98163.44;4988132;27;20856;-71
2022/12/18 00:23:04;;;;;;;26.05;10.57;;;;;;;-5.99;58.81;98153.56;5014960;27;20213;-71
2022/12/18 00:25:32;;;;;;;31.77;11.70;;;;;;;-5.95;58.65;98153.16;5010705;27;20385;-71
2022/12/18 00:27:57;;;;;;;25.27;10.68;;;;;;;-5.94;57.95;98147.19;5034988;27;20627;-71
2022/12/18 00:30:23;;;;;;;32.22;11.40;;;;;;;-6.15;59.09;98171.63;5010665;27;20185;-70
2022/12/18 00:32:48;;;;;;;22.33;10.20;;;;;;;-6.23;58.88;98162.88;4993470;28;20380;-71
2022/12/18 00:35:14;;;;;;;29.48;10.93;;;;;;;-6.15;58.50;98182.59;5014728;27;20197;-71
2022/12/18 00:37:39;;;;;;;28.40;10.68;;;;;;;-6.29;59.15;98173.47;4988011;27;20205;-71
2022/12/18 00:40:05;;;;;;;32.47;11.23;;;;;;;-6.11;58.91;98181.44;5009506;27;20242;-71
2022/12/18 00:45:14;;;;;;;26.85;10.70;;;;;;;-6.14;58.69;98183.38;5016684;27;20208;-71
2022/12/18 00:47:40;;;;;;;29.85;11.65;;;;;;;-6.23;58.41;98172.22;4994036;27;20175;-71
2022/12/18 00:50:06;;;;;;;24.10;11.15;;;;;;;-6.33;58.43;98177.13;5005141;27;20693;-71
2022/12/18 00:52:31;;;;;;;32.45;11.25;;;;;;;-6.47;59.20;98177.34;5010518;27;20184;-71
2022/12/18 00:54:57;;;;;;;34.72;11.93;;;;;;;-6.38;58.71;98180.94;5005714;27;20225;-71
2022/12/18 00:57:22;;;;;;;33.80;12.85;;;;;;;-6.29;58.80;98170.09;5034032;27;20254;-71
2022/12/18 00:59:47;;;;;;;26.40;11.43;;;;;;;-6.44;58.82;98159.41;4988934;28;20205;-71
2022/12/18 01:02:13;;;;;;;33.75;11.82;;;;;;;-6.34;58.86;98150.19;5005160;28;20280;-71
2022/12/18 01:04:38;;;;;;;27.05;12.00;;;;;;;-6.30;57.93;98155.84;4998634;27;20189;-71
2022/12/18 01:07:03;;;;;;;25.50;10.88;;;;;;;-6.12;57.78;98158.72;5010969;28;20252;-71
2022/12/18 01:09:29;;;;;;;26.25;11.52;;;;;;;-6.26;57.45;98155.47;5008623;28;20416;-71
2022/12/18 01:11:54;;;;;;;27.25;10.63;;;;;;;-6.39;58.01;98147.19;5027793;27;20630;-71
2022/12/18 01:14:19;;;;;;;32.85;10.15;;;;;;;-6.43;58.04;98153.38;5009920;28;20262;-71
2022/12/18 01:16:45;;;;;;;20.70;9.68;;;;;;;-6.38;57.87;98158.94;5028045;27;20245;-71
2022/12/18 01:19:10;;;;;;;29.48;10.38;;;;;;;-6.29;57.22;98160.81;5011274;28;20349;-71
2022/12/18 01:21:35;;;;;;;22.65;9.68;;;;;;;-6.27;57.42;98161.50;4976800;28;20385;-71
2022/12/18 01:24:01;;;;;;;27.13;10.25;;;;;;;-6.24;57.75;98171.41;4998288;28;20204;-71
2022/12/18 01:26:29;;;;;;;27.08;10.52;;;;;;;-6.35;57.57;98157.91;4999970;27;20204;-71
2022/12/18 01:28:56;;;;;;;30.33;10.95;;;;;;;-6.50;58.33;98164.91;5012907;28;20550;-70
2022/12/18 01:31:27;;;;;;;24.27;9.60;;;;;;;-6.47;58.71;98159.63;5014958;28;20182;-71
2022/12/18 01:33:52;;;;;;;28.08;11.50;;;;;;;-6.56;58.89;98163.63;5015010;28;20708;-71
2022/12/18 01:36:27;;;;;;;22.30;10.65;;;;;;;-6.48;58.50;98163.06;4989918;28;20201;-70
2022/12/18 01:38:53;;;;;;;24.40;9.80;;;;;;;-6.62;58.91;98161.53;4991202;28;20216;-70
2022/12/18 01:41:22;;;;;;;27.80;10.43;;;;;;;-6.40;59.07;98166.63;4995444;28;20150;-71
2022/12/18 01:43:53;;;;;;;27.20;9.73;;;;;;;-6.23;58.58;98178.06;5004265;28;20355;-70
2022/12/18 01:46:21;;;;;;;24.73;10.07;;;;;;;-6.16;57.72;98178.44;5030195;28;20289;-71
2022/12/18 01:49:06;;;;;;;28.42;10.70;;;;;;;-6.21;57.60;98171.16;4993794;28;20209;-70
2022/12/18 01:51:32;;;;;;;29.27;10.43;;;;;;;-6.15;57.44;98180.06;5008527;28;20209;-71
2022/12/18 01:53:59;;;;;;;25.15;10.25;;;;;;;-6.10;57.97;98182.22;5004661;28;20209;-71
2022/12/18 01:56:24;;;;;;;25.02;9.80;;;;;;;-6.12;57.68;98194.22;5008405;28;20258;-71
2022/12/18 01:58:58;;;;;;;30.38;11.50;;;;;;;-6.32;58.39;98188.06;4984890;28;20603;-71
2022/12/18 02:01:24;;;;;;;20.52;9.82;;;;;;;-6.51;58.38;98193.66;4958706;28;20287;-71
2022/12/18 02:03:49;;;;;;;26.10;9.95;;;;;;;-6.52;58.39;98192.88;5002292;28;20186;-70
2022/12/18 02:06:28;;;;;;;27.98;9.60;;;;;;;-6.27;57.80;98196.13;5015415;28;20699;-71
2022/12/18 02:09:07;;;;;;;25.52;10.88;;;;;;;-6.37;57.88;98193.50;5000045;28;20166;-71
2022/12/18 02:11:32;;;;;;;25.15;9.70;;;;;;;-6.28;57.51;98195.34;4996184;28;20247;-70
2022/12/18 02:14:18;;;;;;;28.05;10.75;;;;;;;-6.12;56.33;98200.09;4988447;28;20798;-71
2022/12/18 02:16:43;;;;;;;;;;;;;;;-6.04;57.06;98202.06;5028963;28;20714;-71
2022/12/18 02:19:29;;;;;;;22.60;8.27;;;;;;;-6.11;57.03;98200.91;5034386;27;20228;-71
2022/12/18 02:22:03;;;;;;;28.27;9.82;;;;;;;-6.23;56.98;98198.34;4974464;27;20738;-70
2022/12/18 02:24:54;;;;;;;22.48;8.95;;;;;;;-6.28;57.36;98200.41;5019100;27;20702;-71
2022/12/18 02:27:19;;;;;;;24.88;10.15;;;;;;;-6.52;57.75;98192.88;5035078;27;20191;-71
2022/12/18 02:29:51;;;;;;;27.73;10.98;;;;;;;-6.34;58.23;98194.97;4999379;27;20204;-71
2022/12/18 02:32:25;;;;;;;30.08;11.02;;;;;;;-6.44;59.15;98180.47;5002948;27;20618;-71
2022/12/18 02:34:52;;;;;;;24.00;10.83;;;;;;;-6.37;58.97;98180.00;5019012;27;20357;-70
2022/12/18 02:37:19;;;;;;;30.55;11.80;;;;;;;-6.26;58.74;98185.88;5012660;28;20444;-70
2022/12/18 02:39:46;;;;;;;25.92;10.38;;;;;;;-6.27;57.90;98194.44;4995797;28;20207;-71
2022/12/18 02:42:12;;;;;;;32.08;11.88;;;;;;;-6.38;58.51;98194.41;5010544;28;20189;-70
2022/12/18 02:44:49;;;;;;;23.63;11.07;;;;;;;-6.07;58.03;98189.59;5001184;27;20204;-71
2022/12/18 02:47:18;;;;;;;31.27;10.52;;;;;;;-6.23;58.49;98182.34;5018873;28;20205;-71
2022/12/18 02:50:02;;;;;;;28.35;9.55;;;;;;;-6.11;58.23;98173.03;4988776;27;20627;-71
2022/12/18 02:52:40;;;;;;;27.73;10.25;;;;;;;-6.22;58.46;98169.56;5011695;28;20201;-71
2022/12/18 02:55:27;;;;;;;29.77;10.65;;;;;;;-6.24;58.12;98156.19;5013228;28;20292;-71
2022/12/18 02:57:55;;;;;;;26.48;11.40;;;;;;;-6.27;58.81;98146.28;5012584;27;20246;-71
2022/12/18 03:00:29;;;;;;;28.60;10.27;;;;;;;-6.14;58.06;98145.38;5023190;27;20289;-70
2022/12/18 03:03:03;;;;;;;29.15;9.35;;;;;;;-6.31;58.38;98152.47;4999476;27;20293;-71
2022/12/18 03:05:39;;;;;;;22.02;9.85;;;;;;;-6.28;58.72;98157.31;5012234;27;20071;-71
2022/12/18 03:08:18;;;;;;;30.33;11.05;;;;;;;-6.35;58.58;98171.38;5017614;28;20243;-70
2022/12/18 03:11:05;;;;;;;32.53;10.90;;;;;;;-6.26;58.65;98169.88;5010605;28;20124;-71
2022/12/18 03:13:35;;;;;;;31.10;11.52;;;;;;;-6.40;59.28;98170.91;5000014;27;20264;-70
2022/12/18 03:16:03;;;;;;;28.27;11.15;;;;;;;-6.50;58.76;98154.75;5000385;27;20661;-71
2022/12/18 03:18:43;;;;;;;31.58;11.63;;;;;;;-6.38;58.79;98164.00;4990973;28;20190;-71
2022/12/18 03:21:10;;;;;;;29.90;11.05;;;;;;;-6.54;59.33;98160.97;4993329;27;20202;-70
2022/12/18 03:23:40;;;;;;;29.15;11.02;;;;;;;-6.42;58.93;98170.22;4999422;27;20718;-70
2022/12/18 03:26:21;;;;;;;30.27;10.77;;;;;;;-6.45;58.63;98170.44;5025336;27;20284;-71
2022/12/18 03:28:53;;;;;;;30.88;12.00;;;;;;;-6.42;58.89;98163.41;5005730;27;20220;-71
2022/12/18 03:31:20;;;;;;;34.17;11.15;;;;;;;-6.52;58.56;98152.34;5007768;27;20170;-71
2022/12/18 03:34:08;;;;;;;29.83;10.85;;;;;;;-6.26;58.11;98158.00;5018046;27;20658;-71
2022/12/18 03:36:34;;;;;;;27.75;9.82;;;;;;;-6.40;58.59;98151.44;4991927;28;20689;-71
2022/12/18 03:38:59;;;;;;;30.30;12.45;;;;;;;-6.53;58.80;98144.84;5001562;27;20244;-70
2022/12/18 03:41:32;;;;;;;29.75;10.68;;;;;;;-6.29;58.69;98153.19;4983006;27;20208;-71
2022/12/18 03:44:33;;;;;;;34.45;11.65;;;;;;;-6.19;57.69;98153.31;4994790;27;20253;-71
2022/12/18 03:47:31;;;;;;;23.55;9.48;;;;;;;-6.07;57.37;98164.25;5007595;27;20197;-71
2022/12/18 03:50:21;;;;;;;28.80;9.85;;;;;;;-6.13;57.40;98157.13;5015230;27;20287;-71
2022/12/18 03:53:27;;;;;;;27.80;10.80;;;;;;;-6.05;57.41;98154.81;4991721;28;20193;-71
2022/12/18 03:55:52;;;;;;;;;;;;;;;-6.04;58.07;98164.84;5000776;28;20165;-70
2022/12/18 03:58:21;;;;;;;27.40;9.68;;;;;;;-6.21;57.98;98172.88;5013246;27;20192;-71
2022/12/18 04:00:47;;;;;;;29.27;10.35;;;;;;;-6.29;58.25;98172.66;5001889;27;20164;-71
2022/12/18 04:03:13;;;;;;;32.15;11.18;;;;;;;-6.30;58.54;98174.38;4996387;28;20197;-71
2022/12/18 04:05:41;;;;;;;30.52;11.27;;;;;;;-6.25;58.56;98174.06;5010734;27;20225;-70
2022/12/18 04:08:06;;;;;;;23.05;9.82;;;;;;;-6.31;58.51;98172.75;4979337;27;20267;-70
2022/12/18 04:10:31;;;;;;;23.75;10.13;;;;;;;-6.30;58.45;98164.25;5013108;27;20173;-71
2022/12/18 04:12:57;;;;;;;34.35;11.95;;;;;;;-6.36;58.53;98153.75;5038584;27;20201;-71
2022/12/18 04:15:23;;;;;;;27.88;10.63;;;;;;;-6.38;58.46;98158.94;5013188;27;20744;-70
2022/12/18 04:17:49;;;;;;;36.83;11.93;;;;;;;-6.37;58.33;98154.66;5013315;27;20449;-71
2022/12/18 04:20:15;;;;;;;33.40;14.25;;;;;;;-6.35;57.96;98153.63;5019044;27;20448;-70
2022/12/18 04:22:41;;;;;;;26.67;10.50;;;;;;;-6.38;58.84;98145.47;4999577;27;20643;-71
2022/12/18 04:25:07;;;;;;;29.05;12.10;;;;;;;-6.46;58.72;98153.59;5025121;27;20252;-71
2022/12/18 04:27:32;;;;;;;28.40;12.15;;;;;;;-6.36;57.78;98152.00;5009656;27;20169;-71
2022/12/18 04:29:57;;;;;;;28.77;10.88;;;;;;;-6.31;58.62;98160.09;5014101;28;20194;-70
2022/12/18 04:32:23;;;;;;;28.55;11.48;;;;;;;-6.27;58.43;98165.72;5014596;27;20197;-70
2022/12/18 04:34:48;;;;;;;22.52;10.15;;;;;;;-6.32;58.15;98155.94;5006934;28;20197;-70
2022/12/18 04:37:13;;;;;;;26.90;11.13;;;;;;;-6.36;58.69;98156.28;5013111;28;20268;-71
2022/12/18 04:39:39;;;;;;;29.77;10.23;;;;;;;-6.32;57.91;98161.03;4981623;27;20185;-70
2022/12/18 04:42:04;;;;;;;30.63;11.57;;;;;;;-6.39;58.66;98149.72;5006867;28;20197;-70
2022/12/18 04:44:29;;;;;;;30.80;14.40;;;;;;;-6.31;57.65;98147.41;5009369;27;20188;-71
2022/12/18 04:46:55;;;;;;;32.60;11.57;;;;;;;-6.43;58.37;98151.66;5004508;27;20545;-71
2022/12/18 04:49:21;;;;;;;27.73;11.40;;;;;;;-6.36;58.74;98149.47;4996044;27;20811;-70
2022/12/18 04:51:46;;;;;;;28.50;11.57;;;;;;;-6.30;57.75;98151.56;5007341;28;20213;-71
2022/12/18 04:54:11;;;;;;;31.83;12.20;;;;;;;-6.26;57.29;98163.09;4995401;27;20383;-71
2022/12/18 04:56:37;;;;;;;28.63;12.32;;;;;;;-6.19;57.50;98167.72;5015263;27;20255;-71
2022/12/18 04:59:02;;;;;;;30.77;10.95;;;;;;;-6.18;57.36;98171.88;4985842;27;20299;-70
2022/12/18 05:01:27;;;;;;;34.95;12.48;;;;;;;-6.25;57.90;98159.66;5013290;28;20331;-70
2022/12/18 05:03:53;;;;;;;26.88;11.52;;;;;;;-6.27;58.18;98161.50;5013919;28;20208;-70
2022/12/18 05:06:18;;;;;;;32.50;12.27;;;;;;;-6.25;58.19;98159.66;5015441;27;20694;-70
2022/12/18 05:08:43;;;;;;;28.15;11.10;;;;;;;-6.25;58.25;98156.31;5015905;28;20202;-71
2022/12/18 05:11:12;;;;;;;31.52;11.43;;;;;;;-6.30;57.90;98160.91;4977869;28;20186;-71
2022/12/18 05:13:37;;;;;;;32.53;11.50;;;;;;;-6.39;58.27;98157.34;5011933;28;20197;-71
2022/12/18 05:16:03;;;;;;;28.60;11.18;;;;;;;-6.39;58.23;98142.13;5004148;27;20192;-71
2022/12/18 05:18:29;;;;;;;30.50;9.27;;;;;;;-6.45;58.76;98145.09;4992692;28;20263;-71
2022/12/18 05:20:54;;;;;;;24.35;10.23;;;;;;;-6.42;58.26;98140.63;5020528;28;20166;-71
2022/12/18 05:23:21;;;;;;;27.88;10.73;;;;;;;-6.40;58.38;98140.50;4998913;28;20612;-70
2022/12/18 05:25:50;;;;;;;28.88;11.35;;;;;;;-6.33;58.60;98146.72;5029101;27;20291;-70
2022/12/18 05:28:16;;;;;;;29.15;11.30;;;;;;;-6.25;57.92;98148.72;4998011;28;20197;-70
2022/12/18 05:30:41;;;;;;;30.33;10.40;;;;;;;-6.38;58.10;98145.47;4999557;28;20281;-70
2022/12/18 05:33:06;;;;;;;32.95;10.45;;;;;;;-6.29;57.52;98153.19;4990616;28;20279;-71
2022/12/18 05:35:32;;;;;;;35.63;11.10;;;;;;;-6.25;57.25;98154.56;5019626;28;20196;-71
2022/12/18 05:37:57;;;;;;;27.27;10.60;;;;;;;-6.32;57.92;98153.41;5016712;28;20520;-70
2022/12/18 05:40:22;;;;;;;28.42;10.05;;;;;;;-6.30;57.75;98164.25;5015364;28;20196;-71
2022/12/18 05:42:47;;;;;;;22.73;9.20;;;;;;;-6.28;57.83;98167.47;4989932;28;20227;-70
2022/12/18 05:45:13;;;;;;;30.55;10.57;;;;;;;-6.24;57.63;98162.97;5035940;28;20216;-71
2022/12/18 05:47:38;;;;;;;25.83;9.10;;;;;;;-6.30;57.02;98171.84;4996875;28;20246;-71
2022/12/18 05:50:04;;;;;;;30.80;9.65;;;;;;;-6.28;57.59;98179.34;5007174;28;20202;-71
2022/12/18 05:52:30;;;;;;;28.08;10.98;;;;;;;-6.25;57.66;98168.97;4997812;27;20550;-71
2022/12/18 05:54:55;;;;;;;27.45;10.00;;;;;;;-6.25;57.91;98169.78;4999275;28;20201;-70
2022/12/18 05:57:21;;;;;;;27.60;10.10;;;;;;;-6.32;58.42;98173.69;5016523;27;20249;-71
2022/12/18 05:59:46;;;;;;;32.42;12.27;;;;;;;-6.40;57.99;98191.19;4982588;27;20213;-71
2022/12/18 06:02:12;;;;;;;26.42;11.65;;;;;;;-6.34;58.25;98189.91;5003030;27;20189;-71
2022/12/18 06:04:37;;;;;;;33.10;12.60;;;;;;;-6.45;57.82;98188.97;4994369;28;20330;-70
2022/12/18 06:07:04;;;;;;;24.90;10.07;;;;;;;-6.36;58.29;98197.63;5016669;27;20201;-71
2022/12/18 06:09:29;;;;;;;25.52;11.02;;;;;;;-6.39;57.95;98197.88;5020851;27;20295;-71
2022/12/18 06:11:54;;;;;;;30.33;11.50;;;;;;;-6.34;58.49;98200.88;5037172;27;20190;-71
2022/12/18 06:14:20;;;;;;;32.80;12.25;;;;;;;-6.22;58.55;98196.59;5031763;27;20167;-70
2022/12/18 06:16:45;;;;;;;35.40;12.98;;;;;;;-6.12;58.37;98200.09;4995663;28;20252;-70
2022/12/18 06:19:14;;;;;;;28.63;11.75;;;;;;;-5.96;58.60;98204.00;4996960;28;20565;-71
2022/12/18 06:21:40;;;;;;;27.95;13.38;;;;;;;-6.03;58.31;98208.75;5030803;27;20574;-71
2022/12/18 06:24:05;;;;;;;29.35;12.70;;;;;;;-6.02;58.15;98220.50;5039581;27;20192;-71
2022/12/18 06:26:31;;;;;;;37.03;11.88;;;;;;;-6.10;58.25;98222.78;4987927;27;20286;-71
2022/12/18 06:28:56;;;;;;;31.60;12.52;;;;;;;-6.17;58.26;98221.63;4996692;27;20273;-71
2022/12/18 06:31:22;;;;;;;25.52;10.70;;;;;;;-6.19;58.39;98223.47;5042143;27;20682;-71
2022/12/18 06:33:47;;;;;;;38.58;13.55;;;;;;;-6.25;58.11;98220.47;4997045;28;20264;-71
2022/12/18 06:36:13;;;;;;;33.55;12.77;;;;;;;-6.21;57.74;98218.50;5032183;27;20314;-71
2022/12/18 06:38:41;;;;;;;32.13;13.70;;;;;;;-6.12;56.98;98215.28;4977657;27;20203;-70
2022/12/18 06:41:12;;;;;;;35.03;12.90;;;;;;;-6.23;56.42;98218.63;5012042;28;20279;-71
2022/12/18 06:43:37;;;;;;;37.47;13.57;;;;;;;-6.32;56.38;98214.25;5008437;27;20470;-71
2022/12/18 06:46:03;;;;;;;32.58;10.93;;;;;;;-6.45;56.03;98216.03;4996836;27;20276;-70
2022/12/18 06:48:29;;;;;;;31.85;13.13;;;;;;;-6.50;56.41;98208.75;5001974;28;20195;-71
2022/12/18 06:50:55;;;;;;;25.08;10.25;;;;;;;-6.51;57.90;98207.16;4981467;27;20205;-70
2022/12/18 06:53:20;;;;;;;31.05;11.25;;;;;;;-6.44;58.03;98210.88;5000780;27;20611;-70
2022/12/18 06:55:45;;;;;;;34.50;12.10;;;;;;;-6.39;58.13;98205.47;4985773;27;20187;-71
2022/12/18 06:58:11;;;;;;;35.60;13.23;;;;;;;-6.36;58.33;98210.28;4994927;27;20214;-71
2022/12/18 07:00:36;;;;;;;30.30;11.18;;;;;;;-6.38;58.26;98204.53;5006447;27;20562;-71
2022/12/18 07:03:01;;;;;;;29.10;11.27;;;;;;;-6.34;58.07;98210.19;4998731;28;20704;-71
2022/12/18 07:05:27;;;;;;;31.00;14.77;;;;;;;-6.34;57.53;98205.94;5010294;27;20298;-71
2022/12/18 07:07:52;;;;;;;40.35;18.48;;;;;;;-6.30;57.50;98199.72;5000020;27;20275;-71
2022/12/18 07:10:18;;;;;;;32.22;16.25;;;;;;;-6.27;57.68;98207.09;5041559;27;20638;-71
2022/12/18 07:12:43;;;;;;;35.75;14.65;;;;;;;-6.23;58.22;98203.41;5021219;27;20178;-71
2022/12/18 07:15:09;;;;;;;47.42;18.70;;;;;;;-6.19;57.80;98208.25;5017120;28;20358;-71
2022/12/18 07:17:34;;;;;;;35.10;15.07;;;;;;;-6.11;57.60;98206.78;5022969;27;20192;-71
2022/12/18 07:19:59;;;;;;;34.70;12.60;;;;;;;-6.14;57.88;98208.72;4997864;27;20729;-71
2022/12/18 07:22:25;;;;;;;39.88;18.45;;;;;;;-6.20;58.00;98202.41;5021812;27;20631;-71
2022/12/18 07:24:51;;;;;;;35.33;16.48;;;;;;;-6.13;58.35;98212.91;4985484;27;20212;-71
2022/12/18 07:27:16;;;;;;;37.30;15.55;;;;;;;-6.15;58.28;98204.56;5015615;28;20172;-71
2022/12/18 07:29:41;;;;;;;40.63;15.95;;;;;;;-6.29;58.03;98206.41;4991403;28;20196;-71
2022/12/18 07:32:07;;;;;;;35.08;14.05;;;;;;;-6.35;58.19;98213.66;4998581;27;20278;-71
2022/12/18 07:34:32;;;;;;;41.33;16.63;;;;;;;-6.40;58.24;98219.03;5006868;27;20166;-71
2022/12/18 07:36:58;;;;;;;48.78;20.13;;;;;;;-6.34;57.68;98225.38;4997329;27;20232;-71
2022/12/18 07:39:23;;;;;;;48.92;19.55;;;;;;;-6.40;57.51;98222.38;5016645;27;20243;-71
2022/12/18 07:42:30;;;;;;;49.63;18.55;;;;;;;-6.32;57.23;98224.38;4998430;27;20273;-71
2022/12/18 07:44:34;;;;;;;37.40;14.80;;;;;;;-6.35;57.00;98234.72;5034460;27;20212;-71
2022/12/18 07:46:59;;;;;;;34.80;15.70;;;;;;;-6.35;56.65;98233.94;5020533;27;20658;-71
2022/12/18 07:49:24;;;;;;;46.63;18.65;;;;;;;-6.31;56.10;98238.63;5001508;28;20217;-71
2022/12/18 07:51:50;;;;;;;33.72;14.25;;;;;;;-6.25;56.30;98238.22;5039420;27;20209;-71
2022/12/18 07:54:15;;;;;;;32.47;13.23;;;;;;;-6.27;57.14;98241.75;5013988;28;20239;-71
2022/12/18 07:56:41;;;;;;;43.88;16.65;;;;;;;-6.38;57.40;98250.16;5015653;27;20261;-71
2022/12/18 07:59:07;;;;;;;34.00;14.10;;;;;;;-6.28;58.19;98251.09;5017420;27;20583;-71
2022/12/18 08:01:33;;;;;;;29.08;11.77;;;;;;;-6.12;57.44;98255.06;4999756;27;20671;-71
2022/12/18 08:03:58;;;;;;;24.83;11.13;;;;;;;-6.06;57.70;98260.47;5018911;27;20649;-71
2022/12/18 08:06:24;;;;;;;30.15;11.05;;;;;;;-5.99;57.85;98260.06;5035520;27;20214;-71
2022/12/18 08:08:51;;;;;;;28.15;11.13;;;;;;;-5.92;57.93;98269.59;4995025;28;20275;-71
2022/12/18 08:11:17;;;;;;;25.48;10.75;;;;;;;-5.76;57.54;98263.38;4983004;28;20131;-71
2022/12/18 08:13:42;;;;;;;35.83;13.98;;;;;;;-5.79;58.23;98261.06;4995371;28;20171;-71
2022/12/18 08:16:07;;;;;;;33.95;14.50;;;;;;;-5.71;57.90;98259.56;5021715;27;20642;-71
2022/12/18 08:18:35;;;;;;;31.20;13.02;;;;;;;-5.62;57.54;98263.19;5035286;27;20263;-71
2022/12/18 08:21:15;;;;;;;34.58;15.68;;;;;;;-5.29;56.02;98246.31;4992569;27;20191;-71
2022/12/18 08:23:41;;;;;;;31.73;15.38;;;;;;;-5.38;54.81;98236.84;5036252;27;20445;-71
2022/12/18 08:26:07;;;;;;;30.55;12.30;;;;;;;-5.55;54.80;98218.66;5023003;27;20270;-71
2022/12/18 08:28:32;;;;;;;30.00;12.18;;;;;;;-5.76;55.00;98217.72;4979837;27;20243;-71
2022/12/18 08:30:57;;;;;;;30.70;12.90;;;;;;;-5.72;55.56;98208.97;4995490;27;20669;-71
2022/12/18 08:33:23;;;;;;;39.22;16.80;;;;;;;-5.73;55.07;98222.56;5016386;27;20318;-71
2022/12/18 08:35:48;;;;;;;40.08;16.55;;;;;;;-5.70;55.57;98214.75;5000003;27;20285;-71
2022/12/18 08:38:14;;;;;;;49.53;21.83;;;;;;;-5.71;55.74;98221.53;5014851;27;20403;-71
2022/12/18 08:40:39;;;;;;;83.50;33.78;;;;;;;-5.66;57.69;98216.09;4991069;28;20167;-71
2022/12/18 08:45:48;;;;;;;39.15;15.50;;;;;;;-5.44;58.52;98199.25;5004105;27;20209;-71
2022/12/18 08:48:14;;;;;;;62.28;25.50;;;;;;;-5.43;58.50;98200.88;5016263;27;20627;-71
2022/12/18 08:50:40;;;;;;;101.70;38.03;;;;;;;-5.39;58.79;98194.66;5002561;27;20278;-71
2022/12/18 08:53:06;;;;;;;63.53;25.23;;;;;;;-5.29;58.68;98206.50;5013449;27;20220;-71
2022/12/18 08:55:31;;;;;;;92.72;33.00;;;;;;;-5.06;58.47;98206.44;5004595;27;20626;-70
2022/12/18 08:57:56;;;;;;;55.05;21.02;;;;;;;-4.92;57.29;98212.97;4998832;27;20225;-71
2022/12/18 09:00:22;;;;;;;35.08;15.27;;;;;;;-4.79;57.22;98216.19;4999762;27;20181;-71
2022/12/18 09:02:47;;;;;;;37.17;15.20;;;;;;;-4.79;57.00;98220.47;5018508;27;20356;-71
2022/12/18 09:05:12;;;;;;;37.17;16.42;;;;;;;-4.76;57.17;98226.09;5017029;28;20185;-71
2022/12/18 09:07:38;;;;;;;42.42;17.30;;;;;;;-4.83;59.38;98227.53;5000952;28;20273;-71
2022/12/18 09:10:03;;;;;;;42.17;17.40;;;;;;;-4.71;59.06;98235.91;5009519;28;20275;-71
2022/12/18 09:12:29;;;;;;;43.10;15.98;;;;;;;-4.57;58.78;98240.69;5017689;28;20257;-71
2022/12/18 09:14:56;;;;;;;35.38;15.27;;;;;;;-4.37;58.38;98238.28;4998748;28;20251;-71
2022/12/18 09:17:21;;;;;;;44.60;16.25;;;;;;;-4.28;57.59;98232.47;5013765;28;20385;-71
2022/12/18 09:19:46;;;;;;;31.88;13.02;;;;;;;-4.26;56.63;98240.78;5016583;28;20652;-71
2022/12/18 09:22:12;;;;;;;39.42;15.68;;;;;;;-4.21;56.86;98256.47;4992843;28;20252;-70
2022/12/18 09:24:37;;;;;;;36.70;14.27;;;;;;;-4.17;57.25;98250.19;5037787;27;20730;-71
2022/12/18 09:27:02;;;;;;;32.75;13.25;;;;;;;-4.16;56.57;98253.56;5010180;27;20299;-71
2022/12/18 09:29:28;;;;;;;32.63;11.68;;;;;;;-4.13;57.01;98258.38;5002786;28;20232;-71
2022/12/18 09:31:53;;;;;;;30.08;11.93;;;;;;;-4.02;56.46;98262.63;5034055;28;20189;-71
2022/12/18 09:34:21;;;;;;;33.70;12.23;;;;;;;-3.98;56.60;98276.69;5037800;28;20250;-71
2022/12/18 09:36:46;;;;;;;27.65;11.55;;;;;;;-3.87;56.22;98278.34;5013521;28;20682;-71
2022/12/18 09:39:12;;;;;;;27.65;12.30;;;;;;;-3.85;56.23;98279.84;4983315;28;20277;-71
2022/12/18 09:41:42;;;;;;;30.90;12.23;;;;;;;-3.75;56.02;98282.47;4991433;28;20690;-71
2022/12/18 09:44:30;;;;;;;28.30;12.45;;;;;;;-3.78;55.82;98292.88;5003874;28;20283;-71
2022/12/18 09:47:29;;;;;;;28.85;11.35;;;;;;;-3.61;56.01;98284.66;5005367;28;20298;-71
2022/12/18 09:50:23;;;;;;;27.65;10.93;;;;;;;-3.54;56.54;98294.34;4964057;28;20235;-71
2022/12/18 09:52:52;;;;;;;27.92;10.82;;;;;;;-3.54;57.16;98291.81;5014174;28;20551;-71
2022/12/18 09:55:23;;;;;;;28.58;11.75;;;;;;;-3.52;57.16;98278.00;4999080;28;20190;-71
2022/12/18 09:57:52;;;;;;;32.53;14.25;;;;;;;-3.33;57.95;98286.66;5010014;28;20204;-71
2022/12/18 10:00:20;;;;;;;33.85;14.68;;;;;;;-3.24;58.21;98273.97;5002160;28;20243;-71
2022/12/18 10:02:46;;;;;;;34.55;14.35;;;;;;;-3.16;58.42;98273.31;5007004;28;20242;-71
2022/12/18 10:05:29;;;;;;;38.50;16.63;;;;;;;-2.98;59.43;98258.22;4998752;28;20178;-70
2022/12/18 10:08:25;;;;;;;43.15;16.38;;;;;;;-2.80;59.81;98260.91;4996519;28;20128;-71
2022/12/18 10:10:56;;;;;;;39.80;18.08;;;;;;;-2.73;59.01;98256.09;5014660;28;20288;-71
2022/12/18 10:13:45;;;;;;;36.40;16.55;;;;;;;-2.67;59.28;98258.13;5013078;28;20513;-71
2022/12/18 10:16:34;;;;;;;42.40;18.00;;;;;;;-2.47;58.87;98264.03;4996628;28;20194;-71
2022/12/18 10:19:26;;;;;;;39.67;15.90;;;;;;;-2.40;58.65;98262.53;5004385;28;20234;-71
2022/12/18 10:22:21;;;;;;;35.55;15.95;;;;;;;-2.38;58.46;98253.03;5019015;28;20259;-71
2022/12/18 10:24:59;;;;;;;39.72;16.90;;;;;;;-2.40;58.72;98243.88;4993879;28;20545;-71
2022/12/18 10:27:26;;;;;;;41.65;16.92;;;;;;;-2.45;58.77;98252.75;4976185;28;20318;-71
2022/12/18 10:29:52;;;;;;;36.75;16.85;;;;;;;-2.34;58.42;98249.25;4979868;28;20206;-71
2022/12/18 10:32:28;;;;;;;31.60;15.15;;;;;;;-2.23;58.72;98247.50;4994301;28;20227;-71
2022/12/18 10:34:56;;;;;;;35.67;15.15;;;;;;;-2.36;59.62;98245.25;4982998;28;20266;-71
2022/12/18 10:37:24;;;;;;;32.97;14.82;;;;;;;-2.35;59.09;98246.84;4978297;28;20267;-71
2022/12/18 10:40:25;;;;;;;38.17;17.00;;;;;;;-2.04;59.24;98244.91;5005331;28;20271;-71
2022/12/18 10:43:04;;;;;;;36.22;16.70;;;;;;;-1.84;58.47;98245.69;4905434;28;20301;-71
2022/12/18 10:45:30;;;;;;;35.63;15.85;;;;;;;-1.96;59.07;98246.78;4897504;28;20206;-72
2022/12/18 10:47:55;;;;;;;36.50;16.75;;;;;;;-1.83;58.03;98249.84;4913307;28;20218;-71
2022/12/18 10:50:33;;;;;;;46.67;20.45;;;;;;;-1.82;58.48;98256.56;4909010;28;20254;-71
2022/12/18 10:53:01;;;;;;;46.90;19.95;;;;;;;-1.80;59.44;98254.69;4897771;28;20199;-72
2022/12/18 10:55:46;;;;;;;61.03;25.95;;;;;;;-1.72;59.66;98242.00;4894052;28;20224;-71
2022/12/18 10:58:28;;;;;;;49.97;20.67;;;;;;;-1.79;59.92;98240.97;4890923;28;20222;-71
2022/12/18 11:01:15;;;;;;;41.17;19.58;;;;;;;-1.56;59.03;98238.06;4885580;28;20172;-72
2022/12/18 11:03:44;;;;;;;55.63;23.05;;;;;;;-1.70;59.32;98232.47;4885069;28;20261;-72
2022/12/18 11:06:09;;;;;;;50.63;23.05;;;;;;;-1.71;59.80;98224.97;4908323;28;20814;-72
2022/12/18 11:08:35;;;;;;;55.00;24.13;;;;;;;-1.73;59.79;98220.00;4906412;28;20425;-72
2022/12/18 11:11:00;;;;;;;63.95;26.65;;;;;;;-1.53;59.82;98217.34;4900279;28;20596;-72
2022/12/18 11:13:28;;;;;;;73.05;27.67;;;;;;;-1.28;59.28;98215.91;4921293;28;20281;-72
2022/12/18 11:15:54;;;;;;;85.25;32.00;;;;;;;-1.15;58.78;98215.53;4894953;28;20206;-72
2022/12/18 11:18:29;;;;;;;47.75;20.35;;;;;;;-1.07;58.42;98223.28;4977157;28;20708;-72
2022/12/18 11:21:12;;;;;;;53.10;21.40;;;;;;;-0.80;58.38;98225.00;4984476;27;20628;-72
2022/12/18 11:23:54;;;;;;;51.38;22.35;;;;;;;-0.72;58.22;98224.28;4960916;28;20210;-72
2022/12/18 11:26:21;;;;;;;38.90;17.48;;;;;;;-0.76;58.27;98225.50;4986324;28;20304;-71
2022/12/18 11:28:49;;;;;;;41.38;17.50;;;;;;;-0.58;58.11;98228.88;4985044;28;20338;-72
2022/12/18 11:31:15;;;;;;;36.47;17.00;;;;;;;-0.57;58.06;98227.94;4997258;28;20295;-72
2022/12/18 11:33:42;;;;;;;36.58;16.65;;;;;;;-0.78;58.81;98206.97;5000883;28;20260;-72